sensor_id;sensor_type;location;lat;lon;timestamp;temperature;humidity
30865;DHT22;17574;49.418;11.038;2022-08-05T00:01:25;24.90;1.00
30865;DHT22;17574;49.418;11.038;2022-08-05T00:03:54;24.80;1.00
30865;DHT22;17574;49.418;11.038;2022-08-05T00:06:23;24.70;1.00
30865;DHT22;17574;49.418;11.038;2022-08-05T00:08:57;24.80;1.00
30865;DHT22;17574;49.418;11.038;2022-08-05T00:11:26;24.70;1.00
30865;DHT22;17574;49.418;11.038;2022-08-05T00:13:56;24.70;1.00
30865;DHT22;17574;49.418;11.038;2022-08-05T00:16:22;24.70;1.00
30865;DHT22;17574;49.418;11.038;2022-08-05T00:19:02;24.70;1.00
30865;DHT22;17574;49.418;11.038;2022-08-05T00:21:29;24.70;1.00
30865;DHT22;17574;49.418;11.038;2022-08-05T00:24:00;24.60;1.00
30865;DHT22;17574;49.418;11.038;2022-08-05T00:26:37;24.50;1.00
30865;DHT22;17574;49.418;11.038;2022-08-05T00:29:03;24.50;1.00
30865;DHT22;17574;49.418;11.038;2022-08-05T00:31:30;24.40;1.00
30865;DHT22;17574;49.418;11.038;2022-08-05T00:34:16;24.40;1.00
30865;DHT22;17574;49.418;11.038;2022-08-05T00:37:03;24.40;1.00
30865;DHT22;17574;49.418;11.038;2022-08-05T00:39:38;24.30;1.00
30865;DHT22;17574;49.418;11.038;2022-08-05T00:42:31;24.30;1.00
30865;DHT22;17574;49.418;11.038;2022-08-05T00:44:58;24.20;1.00
30865;DHT22;17574;49.418;11.038;2022-08-05T00:47:25;24.20;1.00
30865;DHT22;17574;49.418;11.038;2022-08-05T00:50:12;24.10;1.00
30865;DHT22;17574;49.418;11.038;2022-08-05T00:52:38;24.00;1.00
30865;DHT22;17574;49.418;11.038;2022-08-05T00:55:05;24.00;1.00
30865;DHT22;17574;49.418;11.038;2022-08-05T00:57:32;24.00;1.00
30865;DHT22;17574;49.418;11.038;2022-08-05T01:00:18;23.90;1.00
30865;DHT22;17574;49.418;11.038;2022-08-05T01:02:47;23.80;1.00
30865;DHT22;17574;49.418;11.038;2022-08-05T01:05:15;23.80;1.00
30865;DHT22;17574;49.418;11.038;2022-08-05T01:07:42;23.70;1.00
30865;DHT22;17574;49.418;11.038;2022-08-05T01:10:34;23.70;1.00
30865;DHT22;17574;49.418;11.038;2022-08-05T01:13:12;23.70;1.00
30865;DHT22;17574;49.418;11.038;2022-08-05T01:15:49;23.70;1.00
30865;DHT22;17574;49.418;11.038;2022-08-05T01:18:22;23.70;1.00
30865;DHT22;17574;49.418;11.038;2022-08-05T01:28:42;23.60;1.00
30865;DHT22;17574;49.418;11.038;2022-08-05T01:31:14;23.50;1.00
30865;DHT22;17574;49.418;11.038;2022-08-05T01:33:46;23.50;1.00
30865;DHT22;17574;49.418;11.038;2022-08-05T01:36:18;23.50;1.00
30865;DHT22;17574;49.418;11.038;2022-08-05T01:38:54;23.40;1.00
30865;DHT22;17574;49.418;11.038;2022-08-05T01:41:25;23.40;1.00
30865;DHT22;17574;49.418;11.038;2022-08-05T01:43:53;23.30;3.10
30865;DHT22;17574;49.418;11.038;2022-08-05T01:46:20;23.30;4.20
30865;DHT22;17574;49.418;11.038;2022-08-05T01:49:07;23.20;5.10
30865;DHT22;17574;49.418;11.038;2022-08-05T01:51:50;23.20;5.10
30865;DHT22;17574;49.418;11.038;2022-08-05T01:54:19;23.20;5.10
30865;DHT22;17574;49.418;11.038;2022-08-05T01:56:52;23.20;5.10
30865;DHT22;17574;49.418;11.038;2022-08-05T01:59:41;23.10;2.70
30865;DHT22;17574;49.418;11.038;2022-08-05T02:02:12;23.00;1.20
30865;DHT22;17574;49.418;11.038;2022-08-05T02:04:41;23.10;1.00
30865;DHT22;17574;49.418;11.038;2022-08-05T02:07:11;23.10;1.00
30865;DHT22;17574;49.418;11.038;2022-08-05T02:09:48;23.00;1.00
30865;DHT22;17574;49.418;11.038;2022-08-05T02:12:17;23.00;2.00
30865;DHT22;17574;49.418;11.038;2022-08-05T02:14:53;23.00;1.10
30865;DHT22;17574;49.418;11.038;2022-08-05T02:17:24;22.90;1.30
30865;DHT22;17574;49.418;11.038;2022-08-05T02:20:13;22.90;2.00
30865;DHT22;17574;49.418;11.038;2022-08-05T02:22:47;22.90;1.90
30865;DHT22;17574;49.418;11.038;2022-08-05T02:25:21;22.90;2.50
30865;DHT22;17574;49.418;11.038;2022-08-05T02:27:51;22.90;2.60
30865;DHT22;17574;49.418;11.038;2022-08-05T02:30:27;22.80;2.80
30865;DHT22;17574;49.418;11.038;2022-08-05T02:32:55;22.80;2.70
30865;DHT22;17574;49.418;11.038;2022-08-05T02:35:24;22.80;3.50
30865;DHT22;17574;49.418;11.038;2022-08-05T02:37:54;22.80;4.00
30865;DHT22;17574;49.418;11.038;2022-08-05T02:40:25;22.80;3.90
30865;DHT22;17574;49.418;11.038;2022-08-05T02:42:52;22.70;4.70
30865;DHT22;17574;49.418;11.038;2022-08-05T02:45:20;22.70;4.70
30865;DHT22;17574;49.418;11.038;2022-08-05T02:47:50;22.70;5.30
30865;DHT22;17574;49.418;11.038;2022-08-05T02:50:37;22.60;5.50
30865;DHT22;17574;49.418;11.038;2022-08-05T02:53:10;22.60;5.60
30865;DHT22;17574;49.418;11.038;2022-08-05T02:55:45;22.60;4.90
30865;DHT22;17574;49.418;11.038;2022-08-05T02:58:20;22.60;5.20
30865;DHT22;17574;49.418;11.038;2022-08-05T03:00:53;22.50;5.10
30865;DHT22;17574;49.418;11.038;2022-08-05T03:03:20;22.60;5.70
30865;DHT22;17574;49.418;11.038;2022-08-05T03:05:49;22.60;7.50
30865;DHT22;17574;49.418;11.038;2022-08-05T03:08:36;22.50;9.10
30865;DHT22;17574;49.418;11.038;2022-08-05T03:11:26;22.50;6.00
30865;DHT22;17574;49.418;11.038;2022-08-05T03:14:13;22.50;4.60
30865;DHT22;17574;49.418;11.038;2022-08-05T03:16:40;22.50;4.60
30865;DHT22;17574;49.418;11.038;2022-08-05T03:19:07;22.50;4.60
30865;DHT22;17574;49.418;11.038;2022-08-05T03:21:53;22.50;5.90
30865;DHT22;17574;49.418;11.038;2022-08-05T03:24:20;22.50;7.10
30865;DHT22;17574;49.418;11.038;2022-08-05T03:26:56;22.50;5.70
30865;DHT22;17574;49.418;11.038;2022-08-05T03:29:23;22.70;4.70
30865;DHT22;17574;49.418;11.038;2022-08-05T03:32:10;22.80;4.80
30865;DHT22;17574;49.418;11.038;2022-08-05T03:34:40;22.80;4.10
30865;DHT22;17574;49.418;11.038;2022-08-05T03:37:16;22.80;2.90
30865;DHT22;17574;49.418;11.038;2022-08-05T03:39:56;22.80;3.10
30865;DHT22;17574;49.418;11.038;2022-08-05T03:42:29;22.70;2.70
30865;DHT22;17574;49.418;11.038;2022-08-05T03:44:58;22.70;3.30
30865;DHT22;17574;49.418;11.038;2022-08-05T03:47:27;22.70;4.70
30865;DHT22;17574;49.418;11.038;2022-08-05T03:50:00;22.70;5.20
30865;DHT22;17574;49.418;11.038;2022-08-05T03:52:28;22.70;4.70
30865;DHT22;17574;49.418;11.038;2022-08-05T03:55:17;22.70;4.70
30865;DHT22;17574;49.418;11.038;2022-08-05T03:58:06;22.70;4.70
30865;DHT22;17574;49.418;11.038;2022-08-05T04:00:36;22.70;4.00
30865;DHT22;17574;49.418;11.038;2022-08-05T04:03:07;22.70;2.90
30865;DHT22;17574;49.418;11.038;2022-08-05T04:05:52;22.70;1.70
30865;DHT22;17574;49.418;11.038;2022-08-05T04:08:19;22.70;1.00
30865;DHT22;17574;49.418;11.038;2022-08-05T04:11:02;22.70;1.00
30865;DHT22;17574;49.418;11.038;2022-08-05T04:13:29;22.80;1.00
30865;DHT22;17574;49.418;11.038;2022-08-05T04:16:16;22.80;2.10
30865;DHT22;17574;49.418;11.038;2022-08-05T04:18:53;22.80;1.10
30865;DHT22;17574;49.418;11.038;2022-08-05T04:21:23;22.80;1.00
30865;DHT22;17574;49.418;11.038;2022-08-05T04:24:10;22.90;1.00
30865;DHT22;17574;49.418;11.038;2022-08-05T04:26:48;22.90;1.00
30865;DHT22;17574;49.418;11.038;2022-08-05T04:29:14;22.90;1.00
30865;DHT22;17574;49.418;11.038;2022-08-05T04:31:41;23.00;1.00
30865;DHT22;17574;49.418;11.038;2022-08-05T04:34:08;23.00;1.00
30865;DHT22;17574;49.418;11.038;2022-08-05T04:36:55;23.10;1.00
30865;DHT22;17574;49.418;11.038;2022-08-05T04:39:21;23.10;1.00
30865;DHT22;17574;49.418;11.038;2022-08-05T04:41:48;23.20;1.00
30865;DHT22;17574;49.418;11.038;2022-08-05T04:44:17;23.20;1.00
30865;DHT22;17574;49.418;11.038;2022-08-05T04:46:54;23.30;1.00
30865;DHT22;17574;49.418;11.038;2022-08-05T04:49:21;23.30;1.00
30865;DHT22;17574;49.418;11.038;2022-08-05T04:52:03;23.40;1.00
30865;DHT22;17574;49.418;11.038;2022-08-05T04:54:33;23.40;1.00
30865;DHT22;17574;49.418;11.038;2022-08-05T04:57:00;23.40;1.00
30865;DHT22;17574;49.418;11.038;2022-08-05T04:59:26;23.50;1.00
30865;DHT22;17574;49.418;11.038;2022-08-05T05:02:06;23.50;1.00
30865;DHT22;17574;49.418;11.038;2022-08-05T05:04:53;23.60;1.00
30865;DHT22;17574;49.418;11.038;2022-08-05T05:07:29;23.70;1.00
30865;DHT22;17574;49.418;11.038;2022-08-05T05:09:58;23.70;1.00
30865;DHT22;17574;49.418;11.038;2022-08-05T05:12:28;23.80;1.00
30865;DHT22;17574;49.418;11.038;2022-08-05T05:14:55;23.90;1.00
30865;DHT22;17574;49.418;11.038;2022-08-05T05:17:22;23.90;1.00
30865;DHT22;17574;49.418;11.038;2022-08-05T05:20:10;24.00;1.00
30865;DHT22;17574;49.418;11.038;2022-08-05T05:22:36;24.10;1.00
30865;DHT22;17574;49.418;11.038;2022-08-05T05:25:07;24.10;1.00
30865;DHT22;17574;49.418;11.038;2022-08-05T05:27:42;24.20;1.00
30865;DHT22;17574;49.418;11.038;2022-08-05T05:30:12;24.20;1.00
30865;DHT22;17574;49.418;11.038;2022-08-05T05:32:55;24.20;1.00
30865;DHT22;17574;49.418;11.038;2022-08-05T05:35:25;24.30;1.00
30865;DHT22;17574;49.418;11.038;2022-08-05T05:37:55;24.40;1.00
30865;DHT22;17574;49.418;11.038;2022-08-05T05:40:28;24.50;1.00
30865;DHT22;17574;49.418;11.038;2022-08-05T05:42:55;24.70;1.00
30865;DHT22;17574;49.418;11.038;2022-08-05T05:45:22;24.70;1.00
30865;DHT22;17574;49.418;11.038;2022-08-05T05:47:50;25.00;1.00
30865;DHT22;17574;49.418;11.038;2022-08-05T05:50:33;25.20;1.00
30865;DHT22;17574;49.418;11.038;2022-08-05T05:53:09;25.50;1.00
30865;DHT22;17574;49.418;11.038;2022-08-05T05:55:48;25.50;1.00
30865;DHT22;17574;49.418;11.038;2022-08-05T05:58:26;25.70;1.00
30865;DHT22;17574;49.418;11.038;2022-08-05T06:00:58;25.80;1.00
30865;DHT22;17574;49.418;11.038;2022-08-05T06:03:37;25.80;1.00
30865;DHT22;17574;49.418;11.038;2022-08-05T06:06:24;26.00;1.00
30865;DHT22;17574;49.418;11.038;2022-08-05T06:08:58;26.10;1.00
30865;DHT22;17574;49.418;11.038;2022-08-05T06:11:25;26.20;1.00
30865;DHT22;17574;49.418;11.038;2022-08-05T06:13:54;26.40;1.00
30865;DHT22;17574;49.418;11.038;2022-08-05T06:16:21;26.70;1.00
30865;DHT22;17574;49.418;11.038;2022-08-05T06:18:57;26.90;1.00
30865;DHT22;17574;49.418;11.038;2022-08-05T06:21:26;26.80;1.00
30865;DHT22;17574;49.418;11.038;2022-08-05T06:24:04;26.80;1.00
30865;DHT22;17574;49.418;11.038;2022-08-05T06:26:31;26.70;1.00
30865;DHT22;17574;49.418;11.038;2022-08-05T06:29:00;26.60;1.00
30865;DHT22;17574;49.418;11.038;2022-08-05T06:31:32;26.60;1.00
30865;DHT22;17574;49.418;11.038;2022-08-05T06:33:59;26.50;1.00
30865;DHT22;17574;49.418;11.038;2022-08-05T06:36:34;26.50;1.00
30865;DHT22;17574;49.418;11.038;2022-08-05T06:39:21;26.40;1.00
30865;DHT22;17574;49.418;11.038;2022-08-05T06:41:52;26.30;1.00
30865;DHT22;17574;49.418;11.038;2022-08-05T06:44:19;26.10;1.00
30865;DHT22;17574;49.418;11.038;2022-08-05T06:46:47;26.10;1.00
30865;DHT22;17574;49.418;11.038;2022-08-05T06:49:16;26.00;1.00
30865;DHT22;17574;49.418;11.038;2022-08-05T06:51:46;25.90;1.00
30865;DHT22;17574;49.418;11.038;2022-08-05T06:54:13;25.80;1.00
30865;DHT22;17574;49.418;11.038;2022-08-05T06:56:44;25.80;1.00
30865;DHT22;17574;49.418;11.038;2022-08-05T06:59:20;25.60;1.00
30865;DHT22;17574;49.418;11.038;2022-08-05T07:01:47;25.70;1.00
30865;DHT22;17574;49.418;11.038;2022-08-05T07:04:18;25.70;1.00
30865;DHT22;17574;49.418;11.038;2022-08-05T07:06:45;25.80;1.00
30865;DHT22;17574;49.418;11.038;2022-08-05T07:09:15;26.00;1.00
30865;DHT22;17574;49.418;11.038;2022-08-05T07:11:45;26.10;1.00
30865;DHT22;17574;49.418;11.038;2022-08-05T07:14:17;26.20;1.00
30865;DHT22;17574;49.418;11.038;2022-08-05T07:17:03;26.20;1.00
30865;DHT22;17574;49.418;11.038;2022-08-05T07:19:49;26.50;1.00
30865;DHT22;17574;49.418;11.038;2022-08-05T07:22:37;26.70;1.00
30865;DHT22;17574;49.418;11.038;2022-08-05T07:25:04;27.10;1.00
30865;DHT22;17574;49.418;11.038;2022-08-05T07:27:52;27.40;1.00
30865;DHT22;17574;49.418;11.038;2022-08-05T07:30:33;27.70;1.00
30865;DHT22;17574;49.418;11.038;2022-08-05T07:33:05;28.10;1.00
30865;DHT22;17574;49.418;11.038;2022-08-05T07:35:36;28.30;1.00
30865;DHT22;17574;49.418;11.038;2022-08-05T07:38:23;28.50;1.00
30865;DHT22;17574;49.418;11.038;2022-08-05T07:41:07;28.80;1.00
30865;DHT22;17574;49.418;11.038;2022-08-05T07:43:54;28.90;1.00
30865;DHT22;17574;49.418;11.038;2022-08-05T07:46:26;29.20;1.00
30865;DHT22;17574;49.418;11.038;2022-08-05T07:48:53;29.20;1.00
30865;DHT22;17574;49.418;11.038;2022-08-05T07:51:30;28.90;1.00
30865;DHT22;17574;49.418;11.038;2022-08-05T07:54:06;28.70;1.00
30865;DHT22;17574;49.418;11.038;2022-08-05T07:56:35;28.60;1.00
30865;DHT22;17574;49.418;11.038;2022-08-05T07:59:21;28.80;1.00
30865;DHT22;17574;49.418;11.038;2022-08-05T08:02:04;29.00;1.00
30865;DHT22;17574;49.418;11.038;2022-08-05T08:04:40;29.20;1.00
30865;DHT22;17574;49.418;11.038;2022-08-05T08:07:10;29.40;1.00
30865;DHT22;17574;49.418;11.038;2022-08-05T08:09:37;29.60;1.00
30865;DHT22;17574;49.418;11.038;2022-08-05T08:12:04;29.80;1.00
30865;DHT22;17574;49.418;11.038;2022-08-05T08:14:45;29.60;1.00
30865;DHT22;17574;49.418;11.038;2022-08-05T08:17:13;29.50;1.00
30865;DHT22;17574;49.418;11.038;2022-08-05T08:19:42;29.70;1.00
30865;DHT22;17574;49.418;11.038;2022-08-05T08:22:29;30.00;1.00
30865;DHT22;17574;49.418;11.038;2022-08-05T08:24:57;30.20;1.00
30865;DHT22;17574;49.418;11.038;2022-08-05T08:27:29;30.40;1.00
30865;DHT22;17574;49.418;11.038;2022-08-05T08:30:13;30.60;1.00
30865;DHT22;17574;49.418;11.038;2022-08-05T08:33:00;30.50;1.00
30865;DHT22;17574;49.418;11.038;2022-08-05T08:35:30;30.60;1.00
30865;DHT22;17574;49.418;11.038;2022-08-05T08:38:00;30.60;1.00
30865;DHT22;17574;49.418;11.038;2022-08-05T08:40:27;30.70;1.00
30865;DHT22;17574;49.418;11.038;2022-08-05T08:42:54;31.00;1.00
30865;DHT22;17574;49.418;11.038;2022-08-05T08:45:22;30.90;1.00
30865;DHT22;17574;49.418;11.038;2022-08-05T08:47:54;30.90;1.00
30865;DHT22;17574;49.418;11.038;2022-08-05T08:50:39;30.90;1.00
30865;DHT22;17574;49.418;11.038;2022-08-05T08:53:26;31.00;1.00
30865;DHT22;17574;49.418;11.038;2022-08-05T08:55:54;31.00;1.00
30865;DHT22;17574;49.418;11.038;2022-08-05T08:58:31;31.30;1.00
30865;DHT22;17574;49.418;11.038;2022-08-05T09:01:12;31.50;1.00
30865;DHT22;17574;49.418;11.038;2022-08-05T09:03:45;31.60;1.00
30865;DHT22;17574;49.418;11.038;2022-08-05T09:06:13;32.00;1.00
30865;DHT22;17574;49.418;11.038;2022-08-05T09:08:46;31.80;1.00
30865;DHT22;17574;49.418;11.038;2022-08-05T09:11:13;31.50;1.00
30865;DHT22;17574;49.418;11.038;2022-08-05T09:13:40;31.70;1.00
30865;DHT22;17574;49.418;11.038;2022-08-05T09:16:28;31.80;1.00
30865;DHT22;17574;49.418;11.038;2022-08-05T09:18:54;31.90;1.00
30865;DHT22;17574;49.418;11.038;2022-08-05T09:21:24;31.80;1.00
30865;DHT22;17574;49.418;11.038;2022-08-05T09:24:13;31.90;1.00
30865;DHT22;17574;49.418;11.038;2022-08-05T09:26:40;32.00;1.00
30865;DHT22;17574;49.418;11.038;2022-08-05T09:29:09;32.20;1.00
30865;DHT22;17574;49.418;11.038;2022-08-05T09:31:59;32.40;1.00
30865;DHT22;17574;49.418;11.038;2022-08-05T09:37:17;32.30;1.00
30865;DHT22;17574;49.418;11.038;2022-08-05T09:40:04;32.60;1.00
30865;DHT22;17574;49.418;11.038;2022-08-05T09:42:39;32.80;1.00
30865;DHT22;17574;49.418;11.038;2022-08-05T09:45:06;33.10;1.00
30865;DHT22;17574;49.418;11.038;2022-08-05T09:47:54;33.10;1.00
30865;DHT22;17574;49.418;11.038;2022-08-05T09:50:33;33.20;1.00
30865;DHT22;17574;49.418;11.038;2022-08-05T09:53:09;33.60;1.00
30865;DHT22;17574;49.418;11.038;2022-08-05T09:55:52;33.90;1.00
30865;DHT22;17574;49.418;11.038;2022-08-05T09:58:29;33.60;1.00
30865;DHT22;17574;49.418;11.038;2022-08-05T10:01:00;33.90;1.00
30865;DHT22;17574;49.418;11.038;2022-08-05T10:03:39;34.10;1.00
30865;DHT22;17574;49.418;11.038;2022-08-05T10:06:25;34.00;1.00
30865;DHT22;17574;49.418;11.038;2022-08-05T10:08:53;34.00;1.00
30865;DHT22;17574;49.418;11.038;2022-08-05T10:11:21;34.40;1.00
30865;DHT22;17574;49.418;11.038;2022-08-05T10:13:48;34.60;1.00
30865;DHT22;17574;49.418;11.038;2022-08-05T10:16:33;34.80;1.00
30865;DHT22;17574;49.418;11.038;2022-08-05T10:19:17;35.00;1.00
30865;DHT22;17574;49.418;11.038;2022-08-05T10:21:49;35.10;1.00
30865;DHT22;17574;49.418;11.038;2022-08-05T10:24:16;35.20;1.00
30865;DHT22;17574;49.418;11.038;2022-08-05T10:26:45;35.20;1.00
30865;DHT22;17574;49.418;11.038;2022-08-05T10:29:16;35.10;1.00
30865;DHT22;17574;49.418;11.038;2022-08-05T10:32:03;34.90;1.00
30865;DHT22;17574;49.418;11.038;2022-08-05T10:34:50;35.00;1.00
30865;DHT22;17574;49.418;11.038;2022-08-05T10:37:16;35.10;1.00
30865;DHT22;17574;49.418;11.038;2022-08-05T10:39:44;35.30;1.00
30865;DHT22;17574;49.418;11.038;2022-08-05T10:42:31;35.40;1.00
30865;DHT22;17574;49.418;11.038;2022-08-05T10:45:03;35.70;1.00
30865;DHT22;17574;49.418;11.038;2022-08-05T10:47:49;35.80;1.00
30865;DHT22;17574;49.418;11.038;2022-08-05T10:53:37;36.00;1.00
30865;DHT22;17574;49.418;11.038;2022-08-05T10:56:09;36.00;1.00
30865;DHT22;17574;49.418;11.038;2022-08-05T11:01:31;36.40;1.00
30865;DHT22;17574;49.418;11.038;2022-08-05T11:04:21;36.20;1.00
30865;DHT22;17574;49.418;11.038;2022-08-05T11:09:27;36.10;1.00
30865;DHT22;17574;49.418;11.038;2022-08-05T11:18:31;36.60;1.00
30865;DHT22;17574;49.418;11.038;2022-08-05T11:20:43;36.70;1.00
30865;DHT22;17574;49.418;11.038;2022-08-05T11:29:02;36.90;1.00
30865;DHT22;17574;49.418;11.038;2022-08-05T11:31:42;37.00;1.00
30865;DHT22;17574;49.418;11.038;2022-08-05T11:34:36;37.10;1.00
30865;DHT22;17574;49.418;11.038;2022-08-05T11:37:04;37.30;1.00
30865;DHT22;17574;49.418;11.038;2022-08-05T11:39:50;37.40;1.00
30865;DHT22;17574;49.418;11.038;2022-08-05T11:42:25;37.40;1.00
30865;DHT22;17574;49.418;11.038;2022-08-05T11:44:54;37.40;1.00
30865;DHT22;17574;49.418;11.038;2022-08-05T11:47:25;37.20;1.00
30865;DHT22;17574;49.418;11.038;2022-08-05T11:50:12;37.10;1.00
30865;DHT22;17574;49.418;11.038;2022-08-05T11:52:40;37.10;1.00
30865;DHT22;17574;49.418;11.038;2022-08-05T11:55:09;37.00;1.00
30865;DHT22;17574;49.418;11.038;2022-08-05T11:57:38;37.00;1.00
30865;DHT22;17574;49.418;11.038;2022-08-05T12:00:30;36.70;1.00
30865;DHT22;17574;49.418;11.038;2022-08-05T12:03:02;36.60;1.00
30865;DHT22;17574;49.418;11.038;2022-08-05T12:05:40;36.70;1.00
30865;DHT22;17574;49.418;11.038;2022-08-05T12:08:09;36.90;1.00
30865;DHT22;17574;49.418;11.038;2022-08-05T12:10:43;37.10;1.00
30865;DHT22;17574;49.418;11.038;2022-08-05T12:13:14;37.10;1.00
30865;DHT22;17574;49.418;11.038;2022-08-05T12:16:02;37.20;1.00
30865;DHT22;17574;49.418;11.038;2022-08-05T12:18:39;37.00;1.00
30865;DHT22;17574;49.418;11.038;2022-08-05T12:21:15;37.00;1.00
30865;DHT22;17574;49.418;11.038;2022-08-05T12:26:44;36.90;1.00
30865;DHT22;17574;49.418;11.038;2022-08-05T12:29:12;37.10;1.00
30865;DHT22;17574;49.418;11.038;2022-08-05T12:31:48;37.10;1.00
30865;DHT22;17574;49.418;11.038;2022-08-05T12:34:20;37.30;1.00
30865;DHT22;17574;49.418;11.038;2022-08-05T12:36:51;37.40;1.00
30865;DHT22;17574;49.418;11.038;2022-08-05T12:39:19;37.50;1.00
30865;DHT22;17574;49.418;11.038;2022-08-05T12:41:45;37.60;1.00
30865;DHT22;17574;49.418;11.038;2022-08-05T12:44:14;37.40;1.00
30865;DHT22;17574;49.418;11.038;2022-08-05T12:46:58;37.60;1.00
30865;DHT22;17574;49.418;11.038;2022-08-05T12:49:37;37.50;1.00
30865;DHT22;17574;49.418;11.038;2022-08-05T12:52:24;37.60;1.00
30865;DHT22;17574;49.418;11.038;2022-08-05T12:55:25;37.80;1.00
30865;DHT22;17574;49.418;11.038;2022-08-05T12:57:52;37.90;1.00
30865;DHT22;17574;49.418;11.038;2022-08-05T13:00:40;37.90;1.00
30865;DHT22;17574;49.418;11.038;2022-08-05T13:03:27;37.90;1.00
30865;DHT22;17574;49.418;11.038;2022-08-05T13:05:58;37.90;1.00
30865;DHT22;17574;49.418;11.038;2022-08-05T13:08:29;38.00;1.00
30865;DHT22;17574;49.418;11.038;2022-08-05T13:10:58;38.10;1.00
30865;DHT22;17574;49.418;11.038;2022-08-05T13:13:26;37.80;1.00
30865;DHT22;17574;49.418;11.038;2022-08-05T13:16:13;37.90;1.00
30865;DHT22;17574;49.418;11.038;2022-08-05T13:18:51;37.70;1.00
30865;DHT22;17574;49.418;11.038;2022-08-05T13:21:23;37.70;1.00
30865;DHT22;17574;49.418;11.038;2022-08-05T13:24:03;37.40;1.00
30865;DHT22;17574;49.418;11.038;2022-08-05T13:26:30;37.60;1.00
30865;DHT22;17574;49.418;11.038;2022-08-05T13:28:57;37.50;1.00
30865;DHT22;17574;49.418;11.038;2022-08-05T13:31:25;37.70;1.00
30865;DHT22;17574;49.418;11.038;2022-08-05T13:34:11;37.70;1.00
30865;DHT22;17574;49.418;11.038;2022-08-05T13:36:49;37.50;1.00
30865;DHT22;17574;49.418;11.038;2022-08-05T13:39:15;37.50;1.00
30865;DHT22;17574;49.418;11.038;2022-08-05T13:42:02;37.20;1.00
30865;DHT22;17574;49.418;11.038;2022-08-05T13:44:31;37.20;1.00
30865;DHT22;17574;49.418;11.038;2022-08-05T13:47:00;37.00;1.00
30865;DHT22;17574;49.418;11.038;2022-08-05T13:49:33;37.00;1.00
30865;DHT22;17574;49.418;11.038;2022-08-05T13:52:10;36.80;1.00
30865;DHT22;17574;49.418;11.038;2022-08-05T13:54:37;36.60;1.00
30865;DHT22;17574;49.418;11.038;2022-08-05T13:57:05;36.60;1.00
30865;DHT22;17574;49.418;11.038;2022-08-05T13:59:31;36.40;1.00
30865;DHT22;17574;49.418;11.038;2022-08-05T14:02:01;36.10;1.00
30865;DHT22;17574;49.418;11.038;2022-08-05T14:04:29;36.00;1.00
30865;DHT22;17574;49.418;11.038;2022-08-05T14:07:39;35.90;1.00
30865;DHT22;17574;49.418;11.038;2022-08-05T14:10:23;36.00;1.00
30865;DHT22;17574;49.418;11.038;2022-08-05T14:12:54;36.00;1.00
30865;DHT22;17574;49.418;11.038;2022-08-05T14:15:23;35.80;1.00
30865;DHT22;17574;49.418;11.038;2022-08-05T14:18:10;35.60;1.00
30865;DHT22;17574;49.418;11.038;2022-08-05T14:20:43;35.80;1.00
30865;DHT22;17574;49.418;11.038;2022-08-05T14:23:13;36.10;1.00
30865;DHT22;17574;49.418;11.038;2022-08-05T14:25:54;36.30;1.00
30865;DHT22;17574;49.418;11.038;2022-08-05T14:28:28;36.20;1.00
30865;DHT22;17574;49.418;11.038;2022-08-05T14:30:55;36.00;1.00
30865;DHT22;17574;49.418;11.038;2022-08-05T14:33:22;35.70;1.00
30865;DHT22;17574;49.418;11.038;2022-08-05T14:35:50;35.80;1.00
30865;DHT22;17574;49.418;11.038;2022-08-05T14:38:20;36.00;1.00
30865;DHT22;17574;49.418;11.038;2022-08-05T14:40:58;36.20;1.00
30865;DHT22;17574;49.418;11.038;2022-08-05T14:43:25;36.20;1.00
30865;DHT22;17574;49.418;11.038;2022-08-05T14:46:12;36.60;1.00
30865;DHT22;17574;49.418;11.038;2022-08-05T14:48:39;36.80;1.00
30865;DHT22;17574;49.418;11.038;2022-08-05T14:51:06;36.70;1.00
30865;DHT22;17574;49.418;11.038;2022-08-05T14:53:33;36.30;1.00
30865;DHT22;17574;49.418;11.038;2022-08-05T14:56:10;36.00;1.00
30865;DHT22;17574;49.418;11.038;2022-08-05T14:58:38;36.00;1.00
30865;DHT22;17574;49.418;11.038;2022-08-05T15:01:13;36.20;1.00
30865;DHT22;17574;49.418;11.038;2022-08-05T15:03:42;36.60;1.00
30865;DHT22;17574;49.418;11.038;2022-08-05T15:06:10;36.70;1.00
30865;DHT22;17574;49.418;11.038;2022-08-05T15:08:41;36.20;1.00
30865;DHT22;17574;49.418;11.038;2022-08-05T15:11:28;35.90;1.00
30865;DHT22;17574;49.418;11.038;2022-08-05T15:14:14;35.60;1.00
30865;DHT22;17574;49.418;11.038;2022-08-05T15:16:59;35.30;1.00
30865;DHT22;17574;49.418;11.038;2022-08-05T15:19:26;35.00;1.00
30865;DHT22;17574;49.418;11.038;2022-08-05T15:21:53;34.70;1.00
30865;DHT22;17574;49.418;11.038;2022-08-05T15:24:25;34.50;1.00
30865;DHT22;17574;49.418;11.038;2022-08-05T15:26:52;34.40;1.00
30865;DHT22;17574;49.418;11.038;2022-08-05T15:29:21;34.10;1.00
30865;DHT22;17574;49.418;11.038;2022-08-05T15:31:48;33.90;1.00
30865;DHT22;17574;49.418;11.038;2022-08-05T15:34:18;33.90;1.00
30865;DHT22;17574;49.418;11.038;2022-08-05T15:36:59;33.90;1.00
30865;DHT22;17574;49.418;11.038;2022-08-05T15:39:32;34.00;1.00
30865;DHT22;17574;49.418;11.038;2022-08-05T15:42:18;34.00;1.00
30865;DHT22;17574;49.418;11.038;2022-08-05T15:45:05;33.90;1.00
30865;DHT22;17574;49.418;11.038;2022-08-05T15:47:35;34.00;1.00
30865;DHT22;17574;49.418;11.038;2022-08-05T15:50:02;34.00;1.00
30865;DHT22;17574;49.418;11.038;2022-08-05T15:52:29;34.00;1.00
30865;DHT22;17574;49.418;11.038;2022-08-05T15:55:18;33.80;1.00
30865;DHT22;17574;49.418;11.038;2022-08-05T15:57:50;33.70;1.00
30865;DHT22;17574;49.418;11.038;2022-08-05T16:00:16;33.50;1.00
30865;DHT22;17574;49.418;11.038;2022-08-05T16:02:55;33.40;1.00
30865;DHT22;17574;49.418;11.038;2022-08-05T16:05:24;33.30;1.00
30865;DHT22;17574;49.418;11.038;2022-08-05T16:07:54;33.30;1.00
30865;DHT22;17574;49.418;11.038;2022-08-05T16:10:22;33.20;1.00
30865;DHT22;17574;49.418;11.038;2022-08-05T16:12:52;33.20;1.00
30865;DHT22;17574;49.418;11.038;2022-08-05T16:15:21;33.10;1.00
30865;DHT22;17574;49.418;11.038;2022-08-05T16:17:48;32.90;1.00
30865;DHT22;17574;49.418;11.038;2022-08-05T16:20:24;32.70;1.00
30865;DHT22;17574;49.418;11.038;2022-08-05T16:22:50;32.60;1.00
30865;DHT22;17574;49.418;11.038;2022-08-05T16:25:17;32.60;1.00
30865;DHT22;17574;49.418;11.038;2022-08-05T16:27:43;32.40;1.00
30865;DHT22;17574;49.418;11.038;2022-08-05T16:30:26;32.20;1.00
30865;DHT22;17574;49.418;11.038;2022-08-05T16:32:54;31.90;1.00
30865;DHT22;17574;49.418;11.038;2022-08-05T16:35:21;31.80;1.00
30865;DHT22;17574;49.418;11.038;2022-08-05T16:37:54;31.70;1.00
30865;DHT22;17574;49.418;11.038;2022-08-05T16:40:40;31.60;1.00
30865;DHT22;17574;49.418;11.038;2022-08-05T16:43:13;31.60;1.00
30865;DHT22;17574;49.418;11.038;2022-08-05T16:45:42;31.50;1.00
30865;DHT22;17574;49.418;11.038;2022-08-05T16:48:28;31.40;1.00